createdAt,value
2018-12-17T00:00:39.230Z,1006.74
2018-12-17T00:01:39.218Z,1006.72
2018-12-17T00:02:39.207Z,1006.74
2018-12-17T00:03:39.197Z,1006.74
2018-12-17T00:04:39.186Z,1006.72
2018-12-17T00:05:41.841Z,1006.76
2018-12-17T00:06:41.092Z,1006.74
2018-12-17T00:07:39.149Z,1006.76
2018-12-17T00:08:39.138Z,1006.79
2018-12-17T00:09:39.124Z,1006.75
2018-12-17T00:10:39.113Z,1006.79
2018-12-17T00:11:39.104Z,1006.75
2018-12-17T00:12:39.089Z,1006.75
2018-12-17T00:13:39.077Z,1006.78
2018-12-17T00:14:39.064Z,1006.74
2018-12-17T00:15:39.062Z,1006.76
2018-12-17T00:16:39.045Z,1006.76
2018-12-17T00:17:39.035Z,1006.73
2018-12-17T00:18:39.023Z,1006.79
2018-12-17T00:19:39.010Z,1006.79
2018-12-17T00:20:38.999Z,1006.77
2018-12-17T00:21:38.985Z,1006.80
2018-12-17T00:22:38.977Z,1006.84
2018-12-17T00:23:38.966Z,1006.79
2018-12-17T00:24:38.948Z,1006.78
2018-12-17T00:25:38.935Z,1006.82
2018-12-17T00:26:38.930Z,1006.83
2018-12-17T00:27:38.919Z,1006.83
2018-12-17T00:28:38.917Z,1006.86
2018-12-17T00:29:38.892Z,1006.85
2018-12-17T00:30:38.883Z,1006.84
2018-12-17T00:31:38.869Z,1006.85
2018-12-17T00:32:38.877Z,1006.85
2018-12-17T00:33:38.850Z,1006.86
2018-12-17T00:34:38.839Z,1006.89
2018-12-17T00:35:38.824Z,1006.90
2018-12-17T00:36:38.808Z,1006.91
2018-12-17T00:37:38.803Z,1006.90
2018-12-17T00:38:38.795Z,1006.91
2018-12-17T00:39:38.779Z,1006.89
2018-12-17T00:40:38.771Z,1006.89
2018-12-17T00:41:38.758Z,1006.89
2018-12-17T00:42:38.748Z,1006.92
2018-12-17T00:43:38.733Z,1006.90
2018-12-17T00:44:38.724Z,1006.90
2018-12-17T00:45:38.713Z,1006.90
2018-12-17T00:46:38.693Z,1006.92
2018-12-17T00:47:38.688Z,1006.94
2018-12-17T00:48:38.676Z,1006.93
2018-12-17T00:49:38.661Z,1006.99
2018-12-17T00:50:38.659Z,1006.94
2018-12-17T00:51:38.641Z,1006.95
2018-12-17T00:52:38.633Z,1006.94
2018-12-17T00:53:38.619Z,1006.96
2018-12-17T00:54:38.611Z,1006.96
2018-12-17T00:55:40.116Z,1006.95
2018-12-17T00:56:38.587Z,1007.01
2018-12-17T00:57:39.567Z,1007.01
2018-12-17T00:58:38.555Z,1007.01
2018-12-17T00:59:38.551Z,1007.04
2018-12-17T01:00:38.538Z,1007.01
2018-12-17T01:01:38.525Z,1007.03
2018-12-17T01:02:38.514Z,1007.09
2018-12-17T01:03:38.502Z,1007.08
2018-12-17T01:04:38.493Z,1007.10
2018-12-17T01:05:38.481Z,1007.12
2018-12-17T01:06:40.114Z,1007.13
2018-12-17T01:07:38.458Z,1007.11
2018-12-17T01:08:38.443Z,1007.10
2018-12-17T01:09:38.432Z,1007.11
2018-12-17T01:10:38.421Z,1007.10
2018-12-17T01:11:38.410Z,1007.12
2018-12-17T01:12:38.400Z,1007.10
2018-12-17T01:13:38.384Z,1007.10
2018-12-17T01:14:38.374Z,1007.12
2018-12-17T01:15:38.362Z,1007.15
2018-12-17T01:16:38.352Z,1007.12
2018-12-17T01:17:38.343Z,1007.15
2018-12-17T01:18:38.326Z,1007.13
2018-12-17T01:19:38.320Z,1007.14
2018-12-17T01:20:38.302Z,1007.14
2018-12-17T01:21:38.300Z,1007.16
2018-12-17T01:22:38.288Z,1007.15
2018-12-17T01:23:38.274Z,1007.16
2018-12-17T01:24:38.260Z,1007.15
2018-12-17T01:25:38.246Z,1007.17
2018-12-17T01:26:38.235Z,1007.18
2018-12-17T01:27:38.226Z,1007.11
2018-12-17T01:28:38.214Z,1007.14
2018-12-17T01:29:40.127Z,1007.13
2018-12-17T01:30:38.190Z,1007.17
2018-12-17T01:31:38.174Z,1007.14
2018-12-17T01:32:38.161Z,1007.14
2018-12-17T01:33:38.156Z,1007.16
2018-12-17T01:34:38.145Z,1007.19
2018-12-17T01:35:38.133Z,1007.19
2018-12-17T01:36:38.120Z,1007.21
2018-12-17T01:37:38.109Z,1007.20
2018-12-17T01:38:38.172Z,1007.21
2018-12-17T01:39:38.096Z,1007.21
2018-12-17T01:40:38.073Z,1007.21
2018-12-17T01:41:38.062Z,1007.20
2018-12-17T01:42:38.053Z,1007.20
2018-12-17T01:43:38.039Z,1007.21
2018-12-17T01:44:38.078Z,1007.19
2018-12-17T01:45:38.016Z,1007.20
2018-12-17T01:46:38.014Z,1007.26
2018-12-17T01:47:38.002Z,1007.25
2018-12-17T01:48:39.631Z,1007.28
2018-12-17T01:49:37.971Z,1007.27
2018-12-17T01:50:37.956Z,1007.22
2018-12-17T01:51:37.949Z,1007.25
2018-12-17T01:52:37.936Z,1007.22
2018-12-17T01:53:37.919Z,1007.18
2018-12-17T01:54:37.913Z,1007.21
2018-12-17T01:55:37.897Z,1007.18
2018-12-17T01:56:39.624Z,1007.17
2018-12-17T01:57:37.894Z,1007.19
2018-12-17T01:58:37.864Z,1007.18
2018-12-17T01:59:37.852Z,1007.19
2018-12-17T02:00:37.846Z,1007.18
2018-12-17T02:01:37.830Z,1007.18
2018-12-17T02:02:37.813Z,1007.16
2018-12-17T02:03:37.808Z,1007.16
2018-12-17T02:04:37.794Z,1007.13
2018-12-17T02:05:37.782Z,1007.14
2018-12-17T02:06:37.771Z,1007.14
2018-12-17T02:07:37.761Z,1007.12
2018-12-17T02:08:37.744Z,1007.17
2018-12-17T02:09:37.737Z,1007.16
2018-12-17T02:10:37.724Z,1007.15
2018-12-17T02:11:37.714Z,1007.21
2018-12-17T02:12:37.701Z,1007.19
2018-12-17T02:13:37.691Z,1007.21
2018-12-17T02:14:37.677Z,1007.25
2018-12-17T02:15:37.663Z,1007.21
2018-12-17T02:16:37.653Z,1007.19
2018-12-17T02:17:37.643Z,1007.19
2018-12-17T02:18:37.632Z,1007.21
2018-12-17T02:19:37.614Z,1007.19
2018-12-17T02:20:37.609Z,1007.24
2018-12-17T02:21:37.596Z,1007.23
2018-12-17T02:22:38.564Z,1007.22
2018-12-17T02:23:37.571Z,1007.19
2018-12-17T02:24:37.559Z,1007.20
2018-12-17T02:25:37.547Z,1007.20
2018-12-17T02:26:37.540Z,1007.18
2018-12-17T02:27:37.521Z,1007.18
2018-12-17T02:28:37.516Z,1007.15
2018-12-17T02:29:37.499Z,1007.16
2018-12-17T02:30:37.494Z,1007.16
2018-12-17T02:31:37.478Z,1007.14
2018-12-17T02:32:37.463Z,1007.13
2018-12-17T02:33:37.454Z,1007.12
2018-12-17T02:34:37.445Z,1007.10
2018-12-17T02:35:37.436Z,1007.14
2018-12-17T02:36:37.419Z,1007.19
2018-12-17T02:37:37.408Z,1007.15
2018-12-17T02:38:37.397Z,1007.17
2018-12-17T02:39:37.383Z,1007.15
2018-12-17T02:40:37.378Z,1007.18
2018-12-17T02:41:39.146Z,1007.15
2018-12-17T02:42:37.348Z,1007.15
2018-12-17T02:43:37.343Z,1007.18
2018-12-17T02:44:37.329Z,1007.16
2018-12-17T02:45:37.316Z,1007.15
2018-12-17T02:46:37.298Z,1007.18
2018-12-17T02:47:37.322Z,1007.19
2018-12-17T02:48:37.277Z,1007.18
2018-12-17T02:49:37.272Z,1007.18
2018-12-17T02:50:37.254Z,1007.14
2018-12-17T02:51:37.254Z,1007.17
2018-12-17T02:52:37.235Z,1007.21
2018-12-17T02:53:37.224Z,1007.17
2018-12-17T02:54:37.217Z,1007.20
2018-12-17T02:55:37.196Z,1007.20
2018-12-17T02:56:37.189Z,1007.24
2018-12-17T02:57:37.176Z,1007.26
2018-12-17T02:58:43.856Z,1007.24
2018-12-17T02:59:37.149Z,1007.27
2018-12-17T03:00:37.142Z,1007.28
2018-12-17T03:01:37.134Z,1007.27
2018-12-17T03:02:37.118Z,1007.33
2018-12-17T03:03:37.106Z,1007.27
2018-12-17T03:04:37.098Z,1007.32
2018-12-17T03:05:37.083Z,1007.27
2018-12-17T03:06:37.068Z,1007.23
2018-12-17T03:07:37.061Z,1007.25
2018-12-17T03:08:37.050Z,1007.25
2018-12-17T03:09:37.038Z,1007.26
2018-12-17T03:10:37.026Z,1007.25
2018-12-17T03:11:37.011Z,1007.25
2018-12-17T03:12:36.999Z,1007.28
2018-12-17T03:13:36.987Z,1007.32
2018-12-17T03:14:36.978Z,1007.28
2018-12-17T03:15:36.965Z,1007.31
2018-12-17T03:16:36.954Z,1007.28
2018-12-17T03:17:36.945Z,1007.27
2018-12-17T03:18:36.932Z,1007.24
2018-12-17T03:19:36.921Z,1007.25
2018-12-17T03:20:36.910Z,1007.21
2018-12-17T03:21:36.894Z,1007.26
2018-12-17T03:22:38.643Z,1007.25
2018-12-17T03:23:36.878Z,1007.27
2018-12-17T03:24:36.861Z,1007.32
2018-12-17T03:25:36.852Z,1007.35
2018-12-17T03:26:36.840Z,1007.32
2018-12-17T03:27:36.833Z,1007.34
2018-12-17T03:28:36.819Z,1007.32
2018-12-17T03:29:36.805Z,1007.30
2018-12-17T03:30:36.792Z,1007.36
2018-12-17T03:31:36.818Z,1007.39
2018-12-17T03:32:36.770Z,1007.38
2018-12-17T03:33:36.756Z,1007.39
2018-12-17T03:34:36.747Z,1007.40
2018-12-17T03:35:36.732Z,1007.40
2018-12-17T03:36:36.721Z,1007.45
2018-12-17T03:37:36.715Z,1007.40
2018-12-17T03:38:36.698Z,1007.42
2018-12-17T03:39:36.690Z,1007.39
2018-12-17T03:40:36.677Z,1007.40
2018-12-17T03:41:36.665Z,1007.37
2018-12-17T03:42:36.649Z,1007.40
2018-12-17T03:43:36.642Z,1007.42
2018-12-17T03:44:36.633Z,1007.40
2018-12-17T03:45:36.620Z,1007.42
2018-12-17T03:46:36.605Z,1007.42
2018-12-17T03:47:36.597Z,1007.40
2018-12-17T03:48:36.585Z,1007.42
2018-12-17T03:49:36.575Z,1007.43
2018-12-17T03:50:36.564Z,1007.42
2018-12-17T03:51:36.551Z,1007.41
2018-12-17T03:52:36.531Z,1007.48
2018-12-17T03:53:36.526Z,1007.47
2018-12-17T03:54:36.513Z,1007.48
2018-12-17T03:55:36.506Z,1007.52
2018-12-17T03:56:38.154Z,1007.49
2018-12-17T03:57:36.482Z,1007.49
2018-12-17T03:58:36.472Z,1007.49
2018-12-17T03:59:36.455Z,1007.56
2018-12-17T04:00:36.452Z,1007.53
2018-12-17T04:01:36.435Z,1007.55
2018-12-17T04:02:36.423Z,1007.54
2018-12-17T04:03:36.408Z,1007.52
2018-12-17T04:04:36.394Z,1007.53
2018-12-17T04:05:36.393Z,1007.52
2018-12-17T04:06:36.375Z,1007.52
2018-12-17T04:07:36.365Z,1007.49
2018-12-17T04:08:36.354Z,1007.52
2018-12-17T04:09:36.402Z,1007.52
2018-12-17T04:10:36.330Z,1007.54
2018-12-17T04:11:36.318Z,1007.50
2018-12-17T04:12:36.303Z,1007.54
2018-12-17T04:13:36.300Z,1007.51
2018-12-17T04:14:36.285Z,1007.54
2018-12-17T04:15:36.268Z,1007.50
2018-12-17T04:16:36.263Z,1007.52
2018-12-17T04:17:36.250Z,1007.51
2018-12-17T04:18:36.234Z,1007.49
2018-12-17T04:19:36.220Z,1007.52
2018-12-17T04:20:36.214Z,1007.52
2018-12-17T04:21:36.210Z,1007.53
2018-12-17T04:22:36.191Z,1007.54
2018-12-17T04:23:36.182Z,1007.54
2018-12-17T04:24:36.165Z,1007.48
2018-12-17T04:25:36.157Z,1007.49
2018-12-17T04:26:36.145Z,1007.50
2018-12-17T04:27:36.133Z,1007.54
2018-12-17T04:28:36.125Z,1007.50
2018-12-17T04:29:36.107Z,1007.46
2018-12-17T04:30:36.098Z,1007.45
2018-12-17T04:31:36.088Z,1007.45
2018-12-17T04:32:36.075Z,1007.46
2018-12-17T04:33:36.071Z,1007.52
2018-12-17T04:34:36.055Z,1007.50
2018-12-17T04:35:36.042Z,1007.51
2018-12-17T04:36:36.033Z,1007.54
2018-12-17T04:37:36.025Z,1007.56
2018-12-17T04:38:36.008Z,1007.59
2018-12-17T04:39:35.996Z,1007.58
2018-12-17T04:40:35.984Z,1007.59
2018-12-17T04:41:35.971Z,1007.58
2018-12-17T04:42:35.957Z,1007.60
2018-12-17T04:43:35.952Z,1007.61
2018-12-17T04:44:35.940Z,1007.63
2018-12-17T04:45:35.926Z,1007.59
2018-12-17T04:46:35.915Z,1007.63
2018-12-17T04:47:35.900Z,1007.61
2018-12-17T04:48:35.891Z,1007.64
2018-12-17T04:49:35.882Z,1007.66
2018-12-17T04:50:35.869Z,1007.71
2018-12-17T04:51:35.861Z,1007.70
2018-12-17T04:52:35.844Z,1007.70
2018-12-17T04:53:35.831Z,1007.72
2018-12-17T04:54:35.820Z,1007.71
2018-12-17T04:55:35.815Z,1007.75
2018-12-17T04:56:35.798Z,1007.72
2018-12-17T04:57:35.788Z,1007.72
2018-12-17T04:58:35.774Z,1007.68
2018-12-17T04:59:35.767Z,1007.69
2018-12-17T05:00:35.756Z,1007.70
2018-12-17T05:01:35.744Z,1007.71
2018-12-17T05:02:35.735Z,1007.70
2018-12-17T05:03:35.721Z,1007.70
2018-12-17T05:04:35.707Z,1007.72
2018-12-17T05:05:35.697Z,1007.73
2018-12-17T05:06:35.683Z,1007.74
2018-12-17T05:07:35.671Z,1007.74
2018-12-17T05:08:35.661Z,1007.75
2018-12-17T05:09:35.648Z,1007.78
2018-12-17T05:10:35.640Z,1007.77
2018-12-17T05:11:35.623Z,1007.75
2018-12-17T05:12:35.614Z,1007.74
2018-12-17T05:13:35.607Z,1007.76
2018-12-17T05:14:35.592Z,1007.77
2018-12-17T05:15:35.579Z,1007.74
2018-12-17T05:16:35.574Z,1007.77
2018-12-17T05:17:35.555Z,1007.79
2018-12-17T05:18:35.546Z,1007.81
2018-12-17T05:19:35.539Z,1007.79
2018-12-17T05:20:35.521Z,1007.83
2018-12-17T05:21:35.512Z,1007.79
2018-12-17T05:22:35.498Z,1007.77
2018-12-17T05:23:35.488Z,1007.81
2018-12-17T05:24:35.486Z,1007.80
2018-12-17T05:25:35.463Z,1007.76
2018-12-17T05:26:35.451Z,1007.82
2018-12-17T05:27:35.440Z,1007.81
2018-12-17T05:28:35.429Z,1007.85
2018-12-17T05:29:35.424Z,1007.89
2018-12-17T05:30:35.407Z,1007.89
2018-12-17T05:31:35.394Z,1007.86
2018-12-17T05:32:35.382Z,1007.90
2018-12-17T05:33:35.371Z,1007.94
2018-12-17T05:34:35.358Z,1007.96
2018-12-17T05:35:35.348Z,1007.95
2018-12-17T05:36:35.339Z,1007.98
2018-12-17T05:37:35.324Z,1008.00
2018-12-17T05:38:35.315Z,1007.98
2018-12-17T05:39:35.300Z,1008.03
2018-12-17T05:40:35.292Z,1008.01
2018-12-17T05:41:35.282Z,1008.00
2018-12-17T05:42:35.267Z,1008.00
2018-12-17T05:43:35.252Z,1007.98
2018-12-17T05:44:35.271Z,1008.02
2018-12-17T05:45:35.235Z,1008.01
2018-12-17T05:46:35.217Z,1008.07
2018-12-17T05:47:35.210Z,1008.07
2018-12-17T05:48:35.201Z,1008.00
2018-12-17T05:49:35.186Z,1008.00
2018-12-17T05:50:35.176Z,1008.01
2018-12-17T05:51:35.167Z,1008.09
2018-12-17T05:52:35.158Z,1008.08
2018-12-17T05:53:35.167Z,1008.07
2018-12-17T05:54:35.134Z,1008.06
2018-12-17T05:55:35.113Z,1008.12
2018-12-17T05:56:35.101Z,1008.14
2018-12-17T05:57:35.097Z,1008.11
2018-12-17T05:58:35.082Z,1008.17
2018-12-17T05:59:35.069Z,1008.15
2018-12-17T06:00:35.059Z,1008.14
2018-12-17T06:01:35.049Z,1008.13
2018-12-17T06:02:35.033Z,1008.14
2018-12-17T06:03:36.099Z,1008.16
2018-12-17T06:04:35.017Z,1008.13
2018-12-17T06:05:35.000Z,1008.14
2018-12-17T06:06:34.990Z,1008.15
2018-12-17T06:07:34.981Z,1008.12
2018-12-17T06:08:34.965Z,1008.15
2018-12-17T06:09:34.957Z,1008.17
2018-12-17T06:10:34.945Z,1008.16
2018-12-17T06:11:34.934Z,1008.17
2018-12-17T06:12:34.926Z,1008.20
2018-12-17T06:13:34.910Z,1008.23
2018-12-17T06:14:34.901Z,1008.19
2018-12-17T06:15:34.887Z,1008.18
2018-12-17T06:16:34.879Z,1008.24
2018-12-17T06:17:34.864Z,1008.23
2018-12-17T06:18:34.855Z,1008.27
2018-12-17T06:19:34.841Z,1008.25
2018-12-17T06:20:34.827Z,1008.26
2018-12-17T06:21:34.820Z,1008.25
2018-12-17T06:22:34.808Z,1008.26
2018-12-17T06:23:34.800Z,1008.24
2018-12-17T06:24:34.784Z,1008.27
2018-12-17T06:25:34.776Z,1008.28
2018-12-17T06:26:34.763Z,1008.29
2018-12-17T06:27:37.076Z,1008.25
2018-12-17T06:28:34.738Z,1008.26
2018-12-17T06:29:35.687Z,1008.32
2018-12-17T06:30:34.719Z,1008.31
2018-12-17T06:31:34.707Z,1008.36
2018-12-17T06:32:34.691Z,1008.36
2018-12-17T06:33:34.686Z,1008.35
2018-12-17T06:34:34.668Z,1008.38
2018-12-17T06:35:34.659Z,1008.40
2018-12-17T06:36:36.189Z,1008.40
2018-12-17T06:37:34.637Z,1008.40
2018-12-17T06:38:34.622Z,1008.41
2018-12-17T06:39:34.615Z,1008.39
2018-12-17T06:40:34.606Z,1008.40
2018-12-17T06:41:34.590Z,1008.41
2018-12-17T06:42:34.575Z,1008.42
2018-12-17T06:43:36.193Z,1008.37
2018-12-17T06:44:34.553Z,1008.36
2018-12-17T06:45:34.543Z,1008.33
2018-12-17T06:46:34.530Z,1008.33
2018-12-17T06:47:34.528Z,1008.35
2018-12-17T06:48:34.510Z,1008.35
2018-12-17T06:49:34.498Z,1008.38
2018-12-17T06:50:34.487Z,1008.36
2018-12-17T06:51:34.479Z,1008.42
2018-12-17T06:52:34.464Z,1008.42
2018-12-17T06:53:34.452Z,1008.48
2018-12-17T06:54:34.442Z,1008.46
2018-12-17T06:55:34.431Z,1008.43
2018-12-17T06:56:34.420Z,1008.48
2018-12-17T06:57:34.411Z,1008.55
2018-12-17T06:58:34.396Z,1008.55
2018-12-17T06:59:34.385Z,1008.58
2018-12-17T07:00:34.371Z,1008.57
2018-12-17T07:01:34.360Z,1008.58
2018-12-17T07:02:34.346Z,1008.59
2018-12-17T07:03:34.346Z,1008.60
2018-12-17T07:04:34.326Z,1008.61
2018-12-17T07:05:34.312Z,1008.57
2018-12-17T07:06:34.301Z,1008.63
2018-12-17T07:07:34.295Z,1008.63
2018-12-17T07:08:34.282Z,1008.68
2018-12-17T07:09:34.265Z,1008.68
2018-12-17T07:10:34.259Z,1008.67
2018-12-17T07:11:34.251Z,1008.67
2018-12-17T07:12:34.236Z,1008.67
2018-12-17T07:13:34.223Z,1008.67
2018-12-17T07:14:36.646Z,1008.66
2018-12-17T07:15:34.201Z,1008.65
2018-12-17T07:16:34.186Z,1008.63
2018-12-17T07:17:34.217Z,1008.67
2018-12-17T07:18:34.166Z,1008.69
2018-12-17T07:19:34.155Z,1008.69
2018-12-17T07:20:34.145Z,1008.71
2018-12-17T07:21:34.132Z,1008.65
2018-12-17T07:22:34.119Z,1008.66
2018-12-17T07:23:34.108Z,1008.70
2018-12-17T07:24:34.096Z,1008.67
2018-12-17T07:25:34.083Z,1008.71
2018-12-17T07:26:34.071Z,1008.67
2018-12-17T07:27:35.712Z,1008.70
2018-12-17T07:28:34.053Z,1008.74
2018-12-17T07:29:34.037Z,1008.71
2018-12-17T07:30:34.030Z,1008.74
2018-12-17T07:31:34.019Z,1008.77
2018-12-17T07:32:34.009Z,1008.80
2018-12-17T07:33:34.000Z,1008.78
2018-12-17T07:34:33.985Z,1008.85
2018-12-17T07:35:33.970Z,1008.79
2018-12-17T07:36:33.962Z,1008.82
2018-12-17T07:37:33.945Z,1008.81
2018-12-17T07:38:33.934Z,1008.86
2018-12-17T07:39:33.925Z,1008.90
2018-12-17T07:40:33.917Z,1008.87
2018-12-17T07:41:33.901Z,1008.83
2018-12-17T07:42:33.891Z,1008.91
2018-12-17T07:43:33.924Z,1008.90
2018-12-17T07:44:33.867Z,1008.97
2018-12-17T07:45:33.855Z,1008.94
2018-12-17T07:46:33.846Z,1008.91
2018-12-17T07:47:33.834Z,1008.94
2018-12-17T07:48:33.820Z,1008.96
2018-12-17T07:49:33.807Z,1008.95
2018-12-17T07:50:34.789Z,1008.92
2018-12-17T07:51:33.785Z,1008.89
2018-12-17T07:52:33.776Z,1008.94
2018-12-17T07:53:33.768Z,1008.90
2018-12-17T07:54:35.724Z,1008.90
2018-12-17T07:55:33.736Z,1009.00
2018-12-17T07:56:33.726Z,1008.99
2018-12-17T07:57:33.714Z,1009.07
2018-12-17T07:58:33.709Z,1009.05
2018-12-17T07:59:33.690Z,1009.05
2018-12-17T08:00:33.686Z,1009.08
2018-12-17T08:01:33.674Z,1009.10
2018-12-17T08:02:33.657Z,1009.08
2018-12-17T08:03:33.641Z,1009.20
2018-12-17T08:04:33.646Z,1009.14
2018-12-17T08:05:35.215Z,1009.08
2018-12-17T08:06:33.608Z,1009.14
2018-12-17T08:07:33.597Z,1009.17
2018-12-17T08:08:35.549Z,1009.14
2018-12-17T08:09:33.575Z,1009.13
2018-12-17T08:10:33.560Z,1009.23
2018-12-17T08:11:33.549Z,1009.20
2018-12-17T08:12:33.537Z,1009.19
2018-12-17T08:13:33.529Z,1009.16
2018-12-17T08:14:33.516Z,1009.20
2018-12-17T08:15:33.499Z,1009.17
2018-12-17T08:16:33.495Z,1009.18
2018-12-17T08:17:33.482Z,1009.17
2018-12-17T08:18:33.479Z,1009.17
2018-12-17T08:19:33.454Z,1009.16
2018-12-17T08:20:33.443Z,1009.16
2018-12-17T08:21:33.432Z,1009.14
2018-12-17T08:22:33.424Z,1009.14
2018-12-17T08:23:33.407Z,1009.26
2018-12-17T08:24:33.397Z,1009.15
2018-12-17T08:25:33.384Z,1009.18
2018-12-17T08:26:33.373Z,1009.19
2018-12-17T08:27:33.361Z,1009.19
2018-12-17T08:28:33.349Z,1009.29
2018-12-17T08:29:33.335Z,1009.26
2018-12-17T08:30:33.324Z,1009.21
2018-12-17T08:31:33.313Z,1009.27
2018-12-17T08:32:33.303Z,1009.25
2018-12-17T08:33:33.292Z,1009.26
2018-12-17T08:34:33.276Z,1009.26
2018-12-17T08:35:33.264Z,1009.27
2018-12-17T08:36:33.257Z,1009.33
2018-12-17T08:37:33.241Z,1009.34
2018-12-17T08:38:33.230Z,1009.32
2018-12-17T08:39:33.252Z,1009.37
2018-12-17T08:40:33.209Z,1009.33
2018-12-17T08:41:33.194Z,1009.41
2018-12-17T08:42:33.189Z,1009.39
2018-12-17T08:43:33.175Z,1009.41
2018-12-17T08:44:33.161Z,1009.42
2018-12-17T08:45:33.148Z,1009.41
2018-12-17T08:46:33.138Z,1009.44
2018-12-17T08:47:33.135Z,1009.47
2018-12-17T08:48:33.112Z,1009.36
2018-12-17T08:49:33.103Z,1009.43
2018-12-17T08:50:33.088Z,1009.41
2018-12-17T08:51:33.079Z,1009.42
2018-12-17T08:52:33.070Z,1009.42
2018-12-17T08:53:33.061Z,1009.42
2018-12-17T08:54:33.041Z,1009.44
2018-12-17T08:55:33.050Z,1009.41
2018-12-17T08:56:33.023Z,1009.43
2018-12-17T08:57:37.911Z,1009.46
2018-12-17T08:58:32.999Z,1009.58
2018-12-17T08:59:32.982Z,1009.49
2018-12-17T09:00:32.973Z,1009.51
2018-12-17T09:01:32.968Z,1009.53
2018-12-17T09:02:32.955Z,1009.53
2018-12-17T09:03:32.936Z,1009.46
2018-12-17T09:04:32.932Z,1009.44
2018-12-17T09:05:32.923Z,1009.48
2018-12-17T09:06:34.735Z,1009.53
2018-12-17T09:07:32.892Z,1009.52
2018-12-17T09:08:32.878Z,1009.52
2018-12-17T09:09:32.871Z,1009.50
2018-12-17T09:10:32.867Z,1009.54
2018-12-17T09:11:32.858Z,1009.59
2018-12-17T09:12:32.844Z,1009.51
2018-12-17T09:13:32.833Z,1009.58
2018-12-17T09:14:32.812Z,1009.56
2018-12-17T09:15:32.804Z,1009.56
2018-12-17T09:16:32.795Z,1009.59
2018-12-17T09:17:32.783Z,1009.56
2018-12-17T09:18:32.777Z,1009.55
2018-12-17T09:19:32.761Z,1009.57
2018-12-17T09:20:32.754Z,1009.60
2018-12-17T09:21:32.745Z,1009.61
2018-12-17T09:22:32.729Z,1009.64
2018-12-17T09:23:32.729Z,1009.60
2018-12-17T09:24:32.710Z,1009.65
2018-12-17T09:25:32.693Z,1009.65
2018-12-17T09:26:32.686Z,1009.65
2018-12-17T09:27:32.675Z,1009.64
2018-12-17T09:28:32.659Z,1009.67
2018-12-17T09:29:32.648Z,1009.68
2018-12-17T09:30:32.635Z,1009.70
2018-12-17T09:31:32.622Z,1009.68
2018-12-17T09:32:32.609Z,1009.70
2018-12-17T09:33:32.599Z,1009.73
2018-12-17T09:34:32.590Z,1009.78
2018-12-17T09:35:32.653Z,1009.79
2018-12-17T09:36:32.572Z,1009.78
2018-12-17T09:37:32.560Z,1009.80
2018-12-17T09:38:32.544Z,1009.77
2018-12-17T09:39:32.532Z,1009.83
2018-12-17T09:40:32.521Z,1009.82
2018-12-17T09:41:32.521Z,1009.81
2018-12-17T09:42:32.511Z,1009.78
2018-12-17T09:43:32.489Z,1009.80
2018-12-17T09:44:32.476Z,1009.84
2018-12-17T09:45:32.466Z,1009.91
2018-12-17T09:46:32.456Z,1009.85
2018-12-17T09:47:32.445Z,1009.87
2018-12-17T09:48:32.434Z,1009.89
2018-12-17T09:49:32.425Z,1009.91
2018-12-17T09:50:32.410Z,1009.91
2018-12-17T09:51:32.398Z,1009.93
2018-12-17T09:52:32.394Z,1009.94
2018-12-17T09:53:32.376Z,1010.00
2018-12-17T09:54:32.366Z,1009.97
2018-12-17T09:55:32.361Z,1009.91
2018-12-17T09:56:32.347Z,1009.99
2018-12-17T09:57:32.341Z,1010.05
2018-12-17T09:58:32.324Z,1010.08
2018-12-17T09:59:32.311Z,1010.02
2018-12-17T10:00:32.296Z,1010.01
2018-12-17T10:01:32.288Z,1009.96
2018-12-17T10:02:32.272Z,1009.96
2018-12-17T10:03:32.262Z,1009.96
2018-12-17T10:04:32.253Z,1009.98
2018-12-17T10:05:32.237Z,1009.99
2018-12-17T10:06:32.230Z,1010.00
2018-12-17T10:07:32.220Z,1009.99
2018-12-17T10:08:32.221Z,1010.05
2018-12-17T10:09:32.198Z,1010.00
2018-12-17T10:10:32.193Z,1010.01
2018-12-17T10:11:32.173Z,1009.97
2018-12-17T10:12:32.165Z,1010.03
2018-12-17T10:13:32.153Z,1009.99
2018-12-17T10:14:32.140Z,1009.97
2018-12-17T10:15:32.128Z,1009.92
2018-12-17T10:16:32.117Z,1009.94
2018-12-17T10:17:32.107Z,1009.91
2018-12-17T10:18:36.808Z,1009.96
2018-12-17T10:19:32.086Z,1009.91
2018-12-17T10:20:32.073Z,1009.91
2018-12-17T10:21:32.076Z,1009.88
2018-12-17T10:22:32.051Z,1009.88
2018-12-17T10:23:32.042Z,1009.83
2018-12-17T10:24:32.030Z,1009.86
2018-12-17T10:25:32.016Z,1009.83
2018-12-17T10:26:32.005Z,1009.84
2018-12-17T10:27:31.995Z,1009.83
2018-12-17T10:28:31.982Z,1009.82
2018-12-17T10:29:31.972Z,1009.80
2018-12-17T10:30:32.709Z,1009.85
2018-12-17T10:31:31.947Z,1009.85
2018-12-17T10:32:31.938Z,1009.81
2018-12-17T10:33:31.928Z,1009.82
2018-12-17T10:34:31.913Z,1009.78
2018-12-17T10:35:31.908Z,1009.80
2018-12-17T10:36:31.897Z,1009.76
2018-12-17T10:37:33.751Z,1009.81
2018-12-17T10:38:31.874Z,1009.81
2018-12-17T10:39:31.859Z,1009.78
2018-12-17T10:40:31.851Z,1009.80
2018-12-17T10:41:31.838Z,1009.80
2018-12-17T10:42:31.824Z,1009.79
2018-12-17T10:43:31.822Z,1009.81
2018-12-17T10:44:31.803Z,1009.86
2018-12-17T10:45:31.794Z,1009.84
2018-12-17T10:46:31.782Z,1009.86
2018-12-17T10:47:31.773Z,1009.86
2018-12-17T10:48:31.758Z,1009.89
2018-12-17T10:49:31.750Z,1009.87
2018-12-17T10:50:31.741Z,1009.92
2018-12-17T10:51:31.730Z,1009.86
2018-12-17T10:52:31.717Z,1009.87
2018-12-17T10:53:31.706Z,1009.84
2018-12-17T10:54:31.722Z,1009.92
2018-12-17T10:55:33.257Z,1009.90
2018-12-17T10:56:31.672Z,1009.88
2018-12-17T10:57:31.678Z,1009.88
2018-12-17T10:58:31.652Z,1009.87
2018-12-17T10:59:31.637Z,1009.89
2018-12-17T11:00:31.632Z,1009.85
2018-12-17T11:01:32.522Z,1009.90
2018-12-17T11:02:31.608Z,1009.88
2018-12-17T11:03:31.597Z,1009.88
2018-12-17T11:04:31.584Z,1009.90
2018-12-17T11:05:31.574Z,1009.86
2018-12-17T11:06:31.565Z,1009.85
2018-12-17T11:07:31.559Z,1009.88
2018-12-17T11:08:31.557Z,1009.90
2018-12-17T11:09:31.533Z,1009.94
2018-12-17T11:10:31.529Z,1009.96
2018-12-17T11:11:31.509Z,1009.92
2018-12-17T11:12:31.516Z,1009.88
2018-12-17T11:13:31.490Z,1009.92
2018-12-17T11:14:31.477Z,1009.94
2018-12-17T11:15:31.469Z,1009.96
2018-12-17T11:16:31.456Z,1009.90
2018-12-17T11:17:31.445Z,1009.95
2018-12-17T11:18:31.434Z,1009.96
2018-12-17T11:19:31.428Z,1009.93
2018-12-17T11:20:31.416Z,1009.92
2018-12-17T11:21:31.404Z,1009.94
2018-12-17T11:22:31.391Z,1009.91
2018-12-17T11:23:31.381Z,1009.92
2018-12-17T11:24:31.372Z,1009.94
2018-12-17T11:25:31.362Z,1009.91
2018-12-17T11:26:33.266Z,1009.92
2018-12-17T11:27:31.337Z,1009.97
2018-12-17T11:28:31.326Z,1009.92
2018-12-17T11:29:31.321Z,1009.91
2018-12-17T11:30:31.304Z,1009.92
2018-12-17T11:31:31.294Z,1009.94
2018-12-17T11:32:31.285Z,1009.94
2018-12-17T11:33:31.274Z,1009.86
2018-12-17T11:34:31.266Z,1009.92
2018-12-17T11:35:31.251Z,1009.90
2018-12-17T11:36:31.245Z,1009.92
2018-12-17T11:37:31.230Z,1009.92
2018-12-17T11:38:31.220Z,1009.93
2018-12-17T11:39:31.208Z,1009.91
2018-12-17T11:40:32.780Z,1009.91
2018-12-17T11:41:31.193Z,1009.94
2018-12-17T11:42:31.178Z,1009.94
2018-12-17T11:43:31.168Z,1009.91
2018-12-17T11:44:31.157Z,1009.93
2018-12-17T11:45:31.149Z,1009.91
2018-12-17T11:46:31.138Z,1009.92
2018-12-17T11:47:31.129Z,1009.86
2018-12-17T11:48:31.136Z,1009.87
2018-12-17T11:49:32.110Z,1009.92
2018-12-17T11:50:31.094Z,1009.91
2018-12-17T11:51:31.084Z,1009.90
2018-12-17T11:52:31.079Z,1009.89
2018-12-17T11:53:31.067Z,1009.90
2018-12-17T11:54:31.056Z,1009.93
2018-12-17T11:55:31.041Z,1009.94
2018-12-17T11:56:31.031Z,1009.92
2018-12-17T11:57:31.032Z,1009.96
2018-12-17T11:58:31.012Z,1009.89
2018-12-17T11:59:31.003Z,1009.92
2018-12-17T12:00:30.992Z,1009.94
2018-12-17T12:01:30.982Z,1009.94
2018-12-17T12:02:30.973Z,1009.99
2018-12-17T12:03:30.960Z,1009.94
2018-12-17T12:04:30.949Z,1009.97
2018-12-17T12:05:30.942Z,1009.96